createdAt,value
2022-08-11T00:02:35.788Z,24.00
2022-08-11T00:05:09.123Z,24.00
2022-08-11T00:07:45.333Z,24.00
2022-08-11T00:10:15.823Z,24.00
2022-08-11T00:12:45.535Z,23.90
2022-08-11T00:15:15.589Z,23.80
2022-08-11T00:17:46.309Z,23.80
2022-08-11T00:20:17.087Z,23.80
2022-08-11T00:22:48.443Z,23.70
2022-08-11T00:25:19.012Z,23.70
2022-08-11T00:27:49.398Z,23.60
2022-08-11T00:30:19.142Z,23.60
2022-08-11T00:32:56.353Z,23.60
2022-08-11T00:35:51.588Z,23.50
2022-08-11T00:38:27.065Z,23.50
2022-08-11T00:41:02.076Z,23.40
2022-08-11T00:43:48.348Z,23.40
2022-08-11T00:46:28.404Z,23.30
2022-08-11T00:49:05.052Z,23.30
2022-08-11T00:52:04.725Z,23.20
2022-08-11T00:55:10.650Z,23.20
2022-08-11T00:58:23.741Z,23.10
2022-08-11T01:01:11.569Z,23.00
2022-08-11T01:04:09.585Z,22.90
2022-08-11T01:08:02.155Z,22.90
2022-08-11T01:10:38.942Z,22.80
2022-08-11T01:13:17.041Z,22.80
2022-08-11T01:16:09.166Z,22.70
2022-08-11T01:19:10.033Z,22.70
2022-08-11T01:22:19.970Z,22.70
2022-08-11T01:25:21.724Z,22.70
2022-08-11T01:28:38.153Z,22.60
2022-08-11T01:31:51.301Z,22.60
2022-08-11T01:35:12.452Z,22.50
2022-08-11T01:38:11.701Z,22.50
2022-08-11T01:41:10.124Z,22.40
2022-08-11T01:44:23.230Z,22.40
2022-08-11T01:46:58.072Z,22.30
2022-08-11T01:50:07.834Z,22.30
2022-08-11T01:52:34.910Z,22.30
2022-08-11T01:55:14.177Z,22.20
2022-08-11T01:57:48.520Z,22.20
2022-08-11T02:00:20.137Z,22.20
2022-08-11T02:02:54.929Z,22.20
2022-08-11T02:05:37.599Z,22.20
2022-08-11T02:08:16.028Z,22.10
2022-08-11T02:11:10.067Z,22.10
2022-08-11T02:14:00.144Z,22.10
2022-08-11T02:16:39.365Z,22.00
2022-08-11T02:19:52.472Z,22.00
2022-08-11T02:22:47.457Z,22.00
2022-08-11T02:25:28.427Z,21.90
2022-08-11T02:28:03.808Z,21.90
2022-08-11T02:30:38.075Z,21.80
2022-08-11T02:33:25.639Z,21.80
2022-08-11T02:36:06.515Z,21.80
2022-08-11T02:38:45.174Z,21.70
2022-08-11T02:41:42.049Z,21.70
2022-08-11T02:44:25.813Z,21.70
2022-08-11T02:47:05.684Z,21.60
2022-08-11T02:50:02.507Z,21.60
2022-08-11T02:52:46.354Z,21.60
2022-08-11T02:55:55.568Z,21.60
2022-08-11T02:58:19.911Z,21.50
2022-08-11T03:01:04.093Z,21.50
2022-08-11T03:03:39.282Z,21.50
2022-08-11T03:06:13.664Z,21.40
2022-08-11T03:08:54.264Z,21.40
2022-08-11T03:12:09.678Z,21.40
2022-08-11T03:15:07.942Z,21.30
2022-08-11T03:17:45.117Z,21.30
2022-08-11T03:20:25.565Z,21.30
2022-08-11T03:23:19.960Z,21.20
2022-08-11T03:25:59.802Z,21.20
2022-08-11T03:28:33.515Z,21.20
2022-08-11T03:31:20.224Z,21.20
2022-08-11T03:34:07.628Z,21.10
2022-08-11T03:37:16.839Z,21.10
2022-08-11T03:39:56.410Z,21.00
2022-08-11T03:42:33.372Z,21.00
2022-08-11T03:45:08.644Z,20.90
2022-08-11T03:47:58.257Z,20.90
2022-08-11T03:50:42.765Z,20.90
2022-08-11T03:53:19.889Z,20.90
2022-08-11T03:56:14.242Z,20.80
2022-08-11T03:59:17.559Z,20.80
2022-08-11T04:02:18.878Z,20.70
2022-08-11T04:05:33.605Z,20.70
2022-08-11T04:08:36.651Z,20.70
2022-08-11T04:11:44.286Z,20.60
2022-08-11T04:15:01.093Z,20.60
2022-08-11T04:18:05.119Z,20.50
2022-08-11T04:20:58.906Z,20.40
2022-08-11T04:24:36.385Z,20.40
2022-08-11T04:26:55.821Z,20.40
2022-08-11T04:30:03.667Z,20.30
2022-08-11T04:32:46.732Z,20.30
2022-08-11T04:35:34.017Z,20.30
2022-08-11T04:38:59.928Z,20.20
2022-08-11T04:42:31.013Z,20.20
2022-08-11T04:45:35.260Z,20.20
2022-08-11T04:48:39.149Z,20.10
2022-08-11T04:51:54.996Z,20.10
2022-08-11T04:54:51.238Z,20.10
2022-08-11T04:57:45.608Z,20.00
2022-08-11T05:00:32.985Z,20.00
2022-08-11T05:03:40.761Z,20.00
2022-08-11T05:06:36.917Z,19.90
2022-08-11T05:09:23.556Z,19.90
2022-08-11T05:12:27.069Z,19.90
2022-08-11T05:15:13.566Z,19.90
2022-08-11T05:18:14.378Z,19.90
2022-08-11T05:21:07.055Z,19.90
2022-08-11T05:23:58.191Z,19.90
2022-08-11T05:26:49.279Z,19.90
2022-08-11T05:29:58.828Z,19.90
2022-08-11T05:32:49.000Z,19.90
2022-08-11T05:36:01.834Z,19.90
2022-08-11T05:38:35.306Z,19.90
2022-08-11T05:41:22.405Z,19.90
2022-08-11T05:44:19.666Z,19.90
2022-08-11T05:48:04.239Z,19.90
2022-08-11T05:51:30.468Z,20.00
2022-08-11T05:54:46.127Z,20.00
2022-08-11T05:58:04.388Z,20.00
2022-08-11T06:01:05.482Z,20.00
2022-08-11T06:04:45.043Z,20.00
2022-08-11T06:08:03.098Z,20.10
2022-08-11T06:11:14.562Z,20.10
2022-08-11T06:13:55.502Z,20.10
2022-08-11T06:17:05.616Z,20.10
2022-08-11T06:20:45.261Z,20.20
2022-08-11T06:23:54.456Z,20.20
2022-08-11T06:27:13.120Z,20.30
2022-08-11T06:29:54.441Z,20.30
2022-08-11T06:32:27.108Z,20.40
2022-08-11T06:35:20.791Z,20.40
2022-08-11T06:38:06.435Z,20.50
2022-08-11T06:41:08.674Z,20.60
2022-08-11T06:43:55.428Z,20.70
2022-08-11T06:46:30.077Z,20.80
2022-08-11T06:48:59.294Z,21.00
2022-08-11T06:51:32.604Z,21.20
2022-08-11T06:54:05.677Z,21.40
2022-08-11T07:00:02.515Z,22.00
2022-08-11T07:02:35.012Z,22.50
2022-08-11T07:05:09.356Z,22.90
2022-08-11T07:08:33.727Z,23.30
2022-08-11T07:11:49.493Z,23.70
2022-08-11T07:14:42.188Z,24.20
2022-08-11T07:17:15.840Z,24.70
2022-08-11T07:20:52.806Z,25.20
2022-08-11T07:23:39.588Z,25.70
2022-08-11T07:26:31.541Z,26.40
2022-08-11T07:29:01.740Z,27.00
2022-08-11T07:31:42.270Z,27.60
2022-08-11T07:34:19.118Z,28.20
2022-08-11T07:36:52.746Z,28.80
2022-08-11T07:39:24.127Z,29.20
2022-08-11T07:41:54.919Z,29.80
2022-08-11T07:44:34.396Z,30.30
2022-08-11T07:47:23.185Z,30.80
2022-08-11T07:50:26.593Z,31.40
2022-08-11T07:53:28.116Z,31.80
2022-08-11T07:57:09.234Z,32.10
2022-08-11T08:33:19.228Z,37.00
2022-08-11T08:35:55.550Z,37.40
2022-08-11T08:38:26.258Z,37.70
2022-08-11T08:40:56.748Z,37.80
2022-08-11T08:43:26.504Z,38.10
2022-08-11T08:45:58.406Z,38.60
2022-08-11T08:48:30.159Z,38.70
2022-08-11T08:51:22.062Z,39.10
2022-08-11T08:53:56.534Z,39.40
2022-08-11T08:56:29.080Z,39.60
2022-08-11T08:59:00.521Z,39.90
2022-08-11T09:01:31.684Z,40.00
2022-08-11T09:04:04.576Z,40.20
2022-08-11T09:06:43.029Z,40.30
2022-08-11T09:09:18.407Z,40.60
2022-08-11T09:11:56.128Z,41.00
2022-08-11T09:14:47.820Z,41.20
2022-08-11T09:17:17.063Z,41.40
2022-08-11T09:20:44.519Z,41.30
2022-08-11T09:26:45.464Z,41.60
2022-08-11T09:29:15.731Z,41.70
2022-08-11T09:32:03.280Z,41.70
2022-08-11T09:34:47.331Z,41.60
2022-08-11T09:37:55.482Z,41.90
2022-08-11T10:14:31.090Z,42.00
2022-08-11T10:16:15.447Z,41.60
2022-08-11T10:51:42.979Z,40.30
2022-08-11T10:55:14.269Z,40.40
2022-08-11T10:58:38.144Z,40.40
2022-08-11T11:01:09.711Z,40.40
2022-08-11T11:03:39.859Z,40.20
2022-08-11T11:12:53.429Z,40.40
2022-08-11T11:15:41.739Z,40.80
2022-08-11T11:18:13.970Z,40.90
2022-08-11T11:20:47.523Z,40.90
2022-08-11T11:29:49.753Z,40.50
2022-08-11T11:32:32.578Z,40.40
2022-08-11T11:35:48.000Z,40.60
2022-08-11T11:44:55.360Z,40.90
2022-08-11T11:47:27.579Z,41.10
2022-08-11T11:49:58.416Z,40.80
2022-08-11T11:52:29.560Z,40.80
2022-08-11T11:55:11.581Z,41.00
2022-08-11T12:01:28.515Z,40.70
2022-08-11T12:04:00.315Z,40.70
2022-08-11T12:06:30.432Z,41.00
2022-08-11T12:12:15.108Z,39.90
2022-08-11T12:14:44.058Z,39.50
2022-08-11T12:17:14.671Z,39.30
2022-08-11T12:19:50.430Z,39.40
2022-08-11T12:26:25.715Z,39.70
2022-08-11T12:28:50.675Z,39.70
2022-08-11T12:31:35.099Z,39.50
2022-08-11T12:34:38.378Z,39.20
2022-08-11T12:37:17.528Z,38.90
2022-08-11T12:43:24.283Z,38.60
2022-08-11T12:46:14.933Z,38.30
2022-08-11T12:49:16.088Z,38.20
2022-08-11T12:52:11.976Z,38.10
2022-08-11T12:54:59.842Z,38.00
2022-08-11T12:57:51.794Z,38.00
2022-08-11T13:00:41.124Z,37.90
2022-08-11T13:03:39.017Z,37.70
2022-08-11T13:06:12.913Z,37.70
2022-08-11T13:08:44.428Z,37.60
2022-08-11T13:11:56.599Z,37.50
2022-08-11T13:14:21.073Z,37.30
2022-08-11T13:17:08.290Z,37.20
2022-08-11T13:19:39.261Z,37.10
2022-08-11T13:22:08.268Z,36.90
2022-08-11T13:24:39.798Z,36.90
2022-08-11T13:27:19.578Z,37.00
2022-08-11T13:51:11.885Z,36.40
2022-08-11T13:58:56.200Z,36.00
2022-08-11T14:35:33.261Z,35.90
2022-08-11T14:38:17.656Z,35.80
2022-08-11T14:41:26.705Z,35.80
2022-08-11T14:44:15.609Z,35.70
2022-08-11T14:49:58.481Z,35.70
2022-08-11T14:52:49.272Z,35.70
2022-08-11T14:55:37.130Z,35.60
2022-08-11T14:58:11.790Z,35.60
2022-08-11T15:00:42.612Z,35.50
2022-08-11T15:03:14.136Z,35.50
2022-08-11T15:05:56.493Z,35.40
2022-08-11T15:08:57.474Z,35.40
2022-08-11T15:12:07.867Z,35.40
2022-08-11T16:04:07.566Z,34.80
2022-08-11T16:06:49.926Z,34.70
2022-08-11T16:09:47.058Z,34.60
2022-08-11T16:12:20.252Z,34.60
2022-08-11T16:15:11.417Z,34.60
2022-08-11T16:17:44.348Z,34.60
2022-08-11T16:20:41.395Z,34.50
2022-08-11T16:23:11.415Z,34.50
2022-08-11T16:27:03.734Z,34.50
2022-08-11T16:28:31.811Z,34.50
2022-08-11T16:31:00.824Z,34.40
2022-08-11T16:33:49.612Z,34.40
2022-08-11T16:36:40.386Z,34.30
2022-08-11T16:39:19.368Z,34.30
2022-08-11T16:43:06.372Z,34.30
2022-08-11T16:45:56.710Z,34.20
2022-08-11T16:48:50.250Z,34.20
2022-08-11T16:54:44.598Z,34.10
2022-08-11T16:57:38.621Z,34.10
2022-08-11T17:00:15.987Z,34.00
2022-08-11T17:13:40.315Z,33.90
2022-08-11T17:16:28.458Z,33.80
2022-08-11T17:19:03.455Z,33.80
2022-08-11T17:22:15.844Z,33.70
2022-08-11T17:24:47.055Z,33.70
2022-08-11T17:27:19.442Z,33.70
2022-08-11T17:29:55.731Z,33.70
2022-08-11T17:32:56.223Z,33.60
2022-08-11T17:35:31.098Z,33.60
2022-08-11T17:38:05.081Z,33.60
2022-08-11T17:40:38.817Z,33.50
2022-08-11T17:43:28.327Z,33.50
2022-08-11T17:46:24.347Z,33.50
2022-08-11T17:48:53.267Z,33.50
2022-08-11T17:51:39.754Z,33.40
2022-08-11T17:54:27.806Z,33.30
2022-08-11T17:57:21.104Z,33.30
2022-08-11T17:59:53.914Z,33.20
2022-08-11T18:02:50.925Z,33.20
2022-08-11T18:05:24.067Z,33.20
2022-08-11T18:08:13.076Z,33.10
2022-08-11T18:11:01.179Z,33.00
2022-08-11T18:13:49.990Z,33.00
2022-08-11T18:16:38.379Z,32.90
2022-08-11T18:19:25.651Z,32.80
2022-08-11T18:22:39.399Z,32.80
2022-08-11T18:25:29.175Z,32.70
2022-08-11T18:28:16.916Z,32.60
2022-08-11T18:31:12.924Z,32.50
2022-08-11T18:34:07.666Z,32.50
2022-08-11T18:36:57.504Z,32.40
2022-08-11T18:39:56.060Z,32.30
2022-08-11T18:42:50.100Z,32.30
2022-08-11T18:45:52.783Z,32.20
2022-08-11T18:48:58.142Z,32.10
2022-08-11T18:51:47.559Z,32.00
2022-08-11T18:54:37.269Z,31.90
2022-08-11T18:57:26.848Z,31.90
2022-08-11T19:00:15.206Z,31.80
2022-08-11T19:03:03.139Z,31.70
2022-08-11T19:06:37.189Z,31.60
2022-08-11T19:09:05.383Z,31.50
2022-08-11T19:11:53.477Z,31.40
2022-08-11T19:14:41.499Z,31.30
2022-08-11T19:17:45.045Z,31.20
2022-08-11T19:21:22.527Z,31.10
2022-08-11T19:24:13.435Z,30.90
2022-08-11T19:27:00.572Z,30.80
2022-08-11T19:30:07.090Z,30.70
2022-08-11T19:32:54.701Z,30.60
2022-08-11T19:35:41.000Z,30.40
2022-08-11T19:38:27.279Z,30.30
2022-08-11T19:41:16.625Z,30.10
2022-08-11T19:44:05.598Z,30.00
2022-08-11T19:46:54.418Z,29.90
2022-08-11T19:49:42.056Z,29.80
2022-08-11T19:52:29.278Z,29.70
2022-08-11T19:55:15.910Z,29.50
2022-08-11T19:58:03.885Z,29.40
2022-08-11T20:00:52.169Z,29.30
2022-08-11T20:04:03.635Z,29.20
2022-08-11T20:06:50.846Z,29.10
2022-08-11T20:10:04.845Z,29.00
2022-08-11T20:12:44.885Z,28.90
2022-08-11T20:15:33.764Z,28.80
2022-08-11T20:18:20.994Z,28.70
2022-08-11T20:21:57.257Z,28.60
2022-08-11T20:24:43.942Z,28.50
2022-08-11T20:27:31.653Z,28.30
2022-08-11T20:30:20.562Z,28.20
2022-08-11T20:33:09.154Z,28.10
2022-08-11T20:35:58.124Z,27.90
2022-08-11T20:38:48.767Z,27.70
2022-08-11T20:41:58.686Z,27.60
2022-08-11T20:44:44.764Z,27.50
2022-08-11T20:47:32.745Z,27.40
2022-08-11T20:50:40.702Z,27.30
2022-08-11T20:53:28.081Z,27.20
2022-08-11T20:56:16.994Z,27.10
2022-08-11T20:59:18.504Z,27.00
2022-08-11T21:02:09.935Z,26.90
2022-08-11T21:04:57.861Z,26.90
2022-08-11T21:07:55.500Z,26.80
2022-08-11T21:10:50.579Z,26.80
2022-08-11T21:13:39.993Z,26.70
2022-08-11T21:16:28.332Z,26.60
2022-08-11T21:19:54.998Z,26.60
2022-08-11T21:22:28.192Z,26.50
2022-08-11T21:25:17.034Z,26.50
2022-08-11T21:28:05.584Z,26.40
2022-08-11T21:30:57.428Z,26.40
2022-08-11T21:33:45.671Z,26.30
2022-08-11T21:36:33.400Z,26.30
2022-08-11T21:39:22.826Z,26.30
2022-08-11T21:42:13.198Z,26.20
2022-08-11T21:45:01.321Z,26.10
2022-08-11T21:47:48.669Z,26.10
2022-08-11T21:50:35.667Z,26.00
2022-08-11T21:53:21.622Z,26.00
2022-08-11T21:56:09.774Z,25.90
2022-08-11T21:58:58.266Z,25.90
2022-08-11T22:01:53.419Z,25.90
2022-08-11T22:04:39.545Z,25.80
2022-08-11T22:07:26.518Z,25.70
2022-08-11T22:10:40.846Z,25.70
2022-08-11T22:13:19.245Z,25.60
2022-08-11T22:16:06.682Z,25.60
2022-08-11T22:18:54.802Z,25.50
2022-08-11T22:22:11.090Z,25.50
2022-08-11T22:24:57.693Z,25.40
2022-08-11T22:27:44.426Z,25.40
2022-08-11T22:30:30.953Z,25.30
2022-08-11T22:33:26.975Z,25.30
2022-08-11T22:36:16.272Z,25.20
2022-08-11T22:39:04.494Z,25.20
2022-08-11T22:41:51.158Z,25.00
2022-08-11T22:44:37.411Z,25.10
2022-08-11T22:47:26.755Z,25.00
2022-08-11T22:50:17.301Z,25.00
2022-08-11T22:53:05.542Z,24.90
2022-08-11T22:55:51.671Z,24.90
2022-08-11T22:58:39.815Z,24.90
2022-08-11T23:01:26.639Z,24.90
2022-08-11T23:04:15.183Z,24.80
2022-08-11T23:07:03.321Z,24.80
2022-08-11T23:09:49.902Z,24.70
2022-08-11T23:12:36.707Z,24.70
2022-08-11T23:15:23.299Z,24.70
2022-08-11T23:18:09.510Z,24.60
2022-08-11T23:21:15.412Z,24.60
2022-08-11T23:24:04.013Z,24.50
2022-08-11T23:26:51.193Z,24.40
2022-08-11T23:29:45.408Z,24.40
2022-08-11T23:32:31.409Z,24.40
2022-08-11T23:35:38.517Z,24.30
2022-08-11T23:38:26.122Z,24.30
2022-08-11T23:41:13.727Z,24.20
2022-08-11T23:44:00.146Z,24.20
2022-08-11T23:46:46.173Z,24.10
2022-08-11T23:49:32.878Z,24.10
2022-08-11T23:52:19.674Z,24.00
2022-08-11T23:55:05.692Z,24.00
2022-08-11T23:57:54.471Z,24.00
